sensor_id;sensor_type;location;lat;lon;timestamp;P1;durP1;ratioP1;P2;durP2;ratioP2
29688;SDS011;16600;47.444;8.334;2022-10-16T00:00:36;14.82;;;4.72;;
29688;SDS011;16600;47.444;8.334;2022-10-16T00:03:02;13.13;;;5.47;;
29688;SDS011;16600;47.444;8.334;2022-10-16T00:05:28;10.73;;;4.60;;
29688;SDS011;16600;47.444;8.334;2022-10-16T00:07:54;14.82;;;4.63;;
29688;SDS011;16600;47.444;8.334;2022-10-16T00:10:20;8.77;;;4.45;;
29688;SDS011;16600;47.444;8.334;2022-10-16T00:12:46;24.40;;;4.93;;
29688;SDS011;16600;47.444;8.334;2022-10-16T00:15:12;9.15;;;5.22;;
29688;SDS011;16600;47.444;8.334;2022-10-16T00:20:04;18.73;;;4.90;;
29688;SDS011;16600;47.444;8.334;2022-10-16T00:22:34;17.73;;;4.75;;
29688;SDS011;16600;47.444;8.334;2022-10-16T00:25:00;11.75;;;4.50;;
29688;SDS011;16600;47.444;8.334;2022-10-16T00:27:26;7.68;;;4.13;;
29688;SDS011;16600;47.444;8.334;2022-10-16T00:29:56;11.63;;;4.63;;
29688;SDS011;16600;47.444;8.334;2022-10-16T00:32:25;7.18;;;4.68;;
29688;SDS011;16600;47.444;8.334;2022-10-16T00:34:51;8.80;;;4.32;;
29688;SDS011;16600;47.444;8.334;2022-10-16T00:37:20;12.95;;;4.68;;
29688;SDS011;16600;47.444;8.334;2022-10-16T00:39:46;18.60;;;5.75;;
29688;SDS011;16600;47.444;8.334;2022-10-16T00:42:14;11.20;;;5.28;;
29688;SDS011;16600;47.444;8.334;2022-10-16T00:49:31;8.73;;;5.38;;
29688;SDS011;16600;47.444;8.334;2022-10-16T00:54:23;15.05;;;5.13;;
29688;SDS011;16600;47.444;8.334;2022-10-16T00:56:50;11.27;;;5.30;;
29688;SDS011;16600;47.444;8.334;2022-10-16T00:59:18;21.63;;;5.80;;
29688;SDS011;16600;47.444;8.334;2022-10-16T01:01:45;11.98;;;5.60;;
29688;SDS011;16600;47.444;8.334;2022-10-16T01:04:11;14.38;;;5.82;;
29688;SDS011;16600;47.444;8.334;2022-10-16T01:06:43;13.05;;;6.03;;
29688;SDS011;16600;47.444;8.334;2022-10-16T01:09:17;14.18;;;4.20;;
29688;SDS011;16600;47.444;8.334;2022-10-16T01:11:44;8.32;;;5.03;;
29688;SDS011;16600;47.444;8.334;2022-10-16T01:14:18;12.10;;;4.75;;
29688;SDS011;16600;47.444;8.334;2022-10-16T01:16:53;10.27;;;4.18;;
29688;SDS011;16600;47.444;8.334;2022-10-16T01:21:58;10.05;;;5.07;;
29688;SDS011;16600;47.444;8.334;2022-10-16T01:29:28;7.32;;;4.57;;
29688;SDS011;16600;47.444;8.334;2022-10-16T01:31:59;9.57;;;5.07;;
29688;SDS011;16600;47.444;8.334;2022-10-16T01:34:32;9.15;;;3.97;;
29688;SDS011;16600;47.444;8.334;2022-10-16T01:37:04;23.40;;;5.10;;
29688;SDS011;16600;47.444;8.334;2022-10-16T01:39:31;11.93;;;5.28;;
29688;SDS011;16600;47.444;8.334;2022-10-16T01:42:09;13.77;;;4.93;;
29688;SDS011;16600;47.444;8.334;2022-10-16T01:44:37;18.13;;;5.50;;
29688;SDS011;16600;47.444;8.334;2022-10-16T01:47:03;12.07;;;5.05;;
29688;SDS011;16600;47.444;8.334;2022-10-16T01:49:34;13.85;;;6.15;;
29688;SDS011;16600;47.444;8.334;2022-10-16T01:52:04;10.48;;;5.85;;
29688;SDS011;16600;47.444;8.334;2022-10-16T01:54:34;9.75;;;5.55;;
29688;SDS011;16600;47.444;8.334;2022-10-16T01:57:01;17.30;;;6.03;;
29688;SDS011;16600;47.444;8.334;2022-10-16T01:59:28;13.05;;;5.60;;
29688;SDS011;16600;47.444;8.334;2022-10-16T02:01:58;8.48;;;5.55;;
29688;SDS011;16600;47.444;8.334;2022-10-16T02:04:27;7.20;;;4.57;;
29688;SDS011;16600;47.444;8.334;2022-10-16T02:06:54;15.88;;;4.38;;
29688;SDS011;16600;47.444;8.334;2022-10-16T02:09:20;8.65;;;4.97;;
29688;SDS011;16600;47.444;8.334;2022-10-16T02:11:50;14.30;;;4.97;;
29688;SDS011;16600;47.444;8.334;2022-10-16T02:14:17;13.05;;;6.40;;
29688;SDS011;16600;47.444;8.334;2022-10-16T02:16:44;13.13;;;5.18;;
29688;SDS011;16600;47.444;8.334;2022-10-16T02:19:11;14.50;;;5.50;;
29688;SDS011;16600;47.444;8.334;2022-10-16T02:29:22;10.98;;;4.68;;
29688;SDS011;16600;47.444;8.334;2022-10-16T02:31:50;7.35;;;4.47;;
29688;SDS011;16600;47.444;8.334;2022-10-16T02:34:17;7.65;;;4.57;;
29688;SDS011;16600;47.444;8.334;2022-10-16T02:36:44;9.25;;;5.13;;
29688;SDS011;16600;47.444;8.334;2022-10-16T02:39:11;12.75;;;5.43;;
29688;SDS011;16600;47.444;8.334;2022-10-16T02:41:38;8.02;;;4.95;;
29688;SDS011;16600;47.444;8.334;2022-10-16T02:44:06;9.45;;;5.43;;
29688;SDS011;16600;47.444;8.334;2022-10-16T02:46:32;12.98;;;4.57;;
29688;SDS011;16600;47.444;8.334;2022-10-16T02:48:58;7.22;;;4.97;;
29688;SDS011;16600;47.444;8.334;2022-10-16T02:51:24;11.10;;;5.78;;
29688;SDS011;16600;47.444;8.334;2022-10-16T02:53:50;13.00;;;6.10;;
29688;SDS011;16600;47.444;8.334;2022-10-16T02:56:17;12.43;;;6.95;;
29688;SDS011;16600;47.444;8.334;2022-10-16T02:58:43;19.90;;;5.38;;
29688;SDS011;16600;47.444;8.334;2022-10-16T03:01:11;18.02;;;5.95;;
29688;SDS011;16600;47.444;8.334;2022-10-16T03:03:38;14.85;;;6.70;;
29688;SDS011;16600;47.444;8.334;2022-10-16T03:06:04;12.35;;;5.45;;
29688;SDS011;16600;47.444;8.334;2022-10-16T03:08:33;9.98;;;6.28;;
29688;SDS011;16600;47.444;8.334;2022-10-16T03:10:59;8.60;;;5.90;;
29688;SDS011;16600;47.444;8.334;2022-10-16T03:13:27;15.65;;;5.93;;
29688;SDS011;16600;47.444;8.334;2022-10-16T03:15:53;9.32;;;4.40;;
29688;SDS011;16600;47.444;8.334;2022-10-16T03:18:19;23.33;;;6.20;;
29688;SDS011;16600;47.444;8.334;2022-10-16T03:20:45;10.65;;;5.78;;
29688;SDS011;16600;47.444;8.334;2022-10-16T03:23:11;14.82;;;5.70;;
29688;SDS011;16600;47.444;8.334;2022-10-16T03:28:03;9.75;;;6.68;;
29688;SDS011;16600;47.444;8.334;2022-10-16T03:30:29;15.50;;;5.78;;
29688;SDS011;16600;47.444;8.334;2022-10-16T03:32:55;7.25;;;5.50;;
29688;SDS011;16600;47.444;8.334;2022-10-16T03:35:22;13.52;;;5.72;;
29688;SDS011;16600;47.444;8.334;2022-10-16T03:37:49;12.95;;;5.80;;
29688;SDS011;16600;47.444;8.334;2022-10-16T03:40:15;13.68;;;5.47;;
29688;SDS011;16600;47.444;8.334;2022-10-16T03:42:44;12.60;;;5.18;;
29688;SDS011;16600;47.444;8.334;2022-10-16T03:45:10;11.82;;;6.43;;
29688;SDS011;16600;47.444;8.334;2022-10-16T03:47:36;12.52;;;5.22;;
29688;SDS011;16600;47.444;8.334;2022-10-16T03:50:03;9.60;;;5.50;;
29688;SDS011;16600;47.444;8.334;2022-10-16T03:52:29;8.60;;;5.10;;
29688;SDS011;16600;47.444;8.334;2022-10-16T03:54:58;12.85;;;5.13;;
29688;SDS011;16600;47.444;8.334;2022-10-16T03:57:24;7.38;;;4.15;;
29688;SDS011;16600;47.444;8.334;2022-10-16T04:03:03;18.37;;;7.30;;
29688;SDS011;16600;47.444;8.334;2022-10-16T04:05:29;29.42;;;7.93;;
29688;SDS011;16600;47.444;8.334;2022-10-16T04:10:21;19.23;;;7.63;;
29688;SDS011;16600;47.444;8.334;2022-10-16T04:12:47;14.00;;;5.70;;
29688;SDS011;16600;47.444;8.334;2022-10-16T04:17:38;11.40;;;4.80;;
29688;SDS011;16600;47.444;8.334;2022-10-16T04:22:33;11.52;;;4.28;;
29688;SDS011;16600;47.444;8.334;2022-10-16T04:24:59;12.63;;;4.97;;
29688;SDS011;16600;47.444;8.334;2022-10-16T04:29:50;10.88;;;5.10;;
29688;SDS011;16600;47.444;8.334;2022-10-16T04:32:16;9.77;;;4.32;;
29688;SDS011;16600;47.444;8.334;2022-10-16T04:34:42;9.88;;;4.70;;
29688;SDS011;16600;47.444;8.334;2022-10-16T04:37:08;20.83;;;6.15;;
29688;SDS011;16600;47.444;8.334;2022-10-16T04:42:02;8.63;;;4.10;;
29688;SDS011;16600;47.444;8.334;2022-10-16T04:44:29;11.13;;;4.72;;
29688;SDS011;16600;47.444;8.334;2022-10-16T04:46:55;9.40;;;5.13;;
29688;SDS011;16600;47.444;8.334;2022-10-16T04:51:46;10.00;;;5.15;;
29688;SDS011;16600;47.444;8.334;2022-10-16T04:54:13;11.43;;;6.03;;
29688;SDS011;16600;47.444;8.334;2022-10-16T04:56:39;18.95;;;6.10;;
29688;SDS011;16600;47.444;8.334;2022-10-16T04:59:13;12.95;;;5.80;;
29688;SDS011;16600;47.444;8.334;2022-10-16T05:01:40;20.48;;;7.45;;
29688;SDS011;16600;47.444;8.334;2022-10-16T05:04:06;16.63;;;6.22;;
29688;SDS011;16600;47.444;8.334;2022-10-16T05:06:32;10.95;;;5.75;;
29688;SDS011;16600;47.444;8.334;2022-10-16T05:08:58;20.02;;;7.15;;
29688;SDS011;16600;47.444;8.334;2022-10-16T05:11:24;20.73;;;8.77;;
29688;SDS011;16600;47.444;8.334;2022-10-16T05:16:16;15.00;;;4.97;;
29688;SDS011;16600;47.444;8.334;2022-10-16T05:18:42;8.50;;;5.75;;
29688;SDS011;16600;47.444;8.334;2022-10-16T05:23:33;16.02;;;5.65;;
29688;SDS011;16600;47.444;8.334;2022-10-16T05:28:25;27.95;;;5.80;;
29688;SDS011;16600;47.444;8.334;2022-10-16T05:30:51;7.68;;;4.38;;
29688;SDS011;16600;47.444;8.334;2022-10-16T05:33:19;7.40;;;4.90;;
29688;SDS011;16600;47.444;8.334;2022-10-16T05:35:45;11.60;;;5.05;;
29688;SDS011;16600;47.444;8.334;2022-10-16T05:38:11;9.77;;;4.43;;
29688;SDS011;16600;47.444;8.334;2022-10-16T05:43:03;11.10;;;5.22;;
29688;SDS011;16600;47.444;8.334;2022-10-16T05:47:55;8.65;;;5.88;;
29688;SDS011;16600;47.444;8.334;2022-10-16T05:50:21;9.68;;;5.53;;
29688;SDS011;16600;47.444;8.334;2022-10-16T05:52:50;20.45;;;6.00;;
29688;SDS011;16600;47.444;8.334;2022-10-16T05:55:16;14.48;;;5.15;;
29688;SDS011;16600;47.444;8.334;2022-10-16T05:57:42;11.52;;;5.68;;
29688;SDS011;16600;47.444;8.334;2022-10-16T06:00:08;9.60;;;5.40;;
29688;SDS011;16600;47.444;8.334;2022-10-16T06:02:41;7.40;;;4.43;;
29688;SDS011;16600;47.444;8.334;2022-10-16T06:05:07;7.30;;;4.68;;
29688;SDS011;16600;47.444;8.334;2022-10-16T06:07:36;11.60;;;4.22;;
29688;SDS011;16600;47.444;8.334;2022-10-16T06:10:02;10.68;;;4.88;;
29688;SDS011;16600;47.444;8.334;2022-10-16T06:12:29;16.08;;;4.45;;
29688;SDS011;16600;47.444;8.334;2022-10-16T06:14:55;8.85;;;3.97;;
29688;SDS011;16600;47.444;8.334;2022-10-16T06:17:21;12.27;;;4.63;;
29688;SDS011;16600;47.444;8.334;2022-10-16T06:19:48;9.65;;;4.38;;
29688;SDS011;16600;47.444;8.334;2022-10-16T06:22:14;17.02;;;4.15;;
29688;SDS011;16600;47.444;8.334;2022-10-16T06:24:41;7.45;;;3.33;;
29688;SDS011;16600;47.444;8.334;2022-10-16T06:27:10;7.40;;;4.70;;
29688;SDS011;16600;47.444;8.334;2022-10-16T06:29:38;11.10;;;3.72;;
29688;SDS011;16600;47.444;8.334;2022-10-16T06:32:07;12.57;;;4.20;;
29688;SDS011;16600;47.444;8.334;2022-10-16T06:34:36;11.23;;;3.83;;
29688;SDS011;16600;47.444;8.334;2022-10-16T06:37:02;8.77;;;3.63;;
29688;SDS011;16600;47.444;8.334;2022-10-16T06:39:28;4.72;;;3.33;;
29688;SDS011;16600;47.444;8.334;2022-10-16T06:44:20;9.07;;;2.75;;
29688;SDS011;16600;47.444;8.334;2022-10-16T06:46:46;8.30;;;3.75;;
29688;SDS011;16600;47.444;8.334;2022-10-16T06:51:37;4.90;;;3.00;;
29688;SDS011;16600;47.444;8.334;2022-10-16T06:54:06;10.93;;;3.92;;
29688;SDS011;16600;47.444;8.334;2022-10-16T06:56:32;10.63;;;3.72;;
29688;SDS011;16600;47.444;8.334;2022-10-16T06:58:59;7.80;;;3.53;;
29688;SDS011;16600;47.444;8.334;2022-10-16T07:01:25;14.30;;;3.72;;
29688;SDS011;16600;47.444;8.334;2022-10-16T07:03:51;6.65;;;3.63;;
29688;SDS011;16600;47.444;8.334;2022-10-16T07:06:18;6.57;;;3.42;;
29688;SDS011;16600;47.444;8.334;2022-10-16T07:08:45;4.85;;;3.20;;
29688;SDS011;16600;47.444;8.334;2022-10-16T07:11:16;13.35;;;3.75;;
29688;SDS011;16600;47.444;8.334;2022-10-16T07:13:45;10.70;;;3.90;;
29688;SDS011;16600;47.444;8.334;2022-10-16T07:16:16;10.20;;;3.78;;
29688;SDS011;16600;47.444;8.334;2022-10-16T07:18:48;17.85;;;4.38;;
29688;SDS011;16600;47.444;8.334;2022-10-16T07:21:17;6.20;;;4.00;;
29688;SDS011;16600;47.444;8.334;2022-10-16T07:23:44;9.35;;;4.20;;
29688;SDS011;16600;47.444;8.334;2022-10-16T07:26:11;19.10;;;4.15;;
29688;SDS011;16600;47.444;8.334;2022-10-16T07:28:40;11.10;;;2.95;;
29688;SDS011;16600;47.444;8.334;2022-10-16T07:31:11;8.30;;;3.25;;
29688;SDS011;16600;47.444;8.334;2022-10-16T07:33:39;8.45;;;2.70;;
29688;SDS011;16600;47.444;8.334;2022-10-16T07:36:07;15.38;;;3.67;;
29688;SDS011;16600;47.444;8.334;2022-10-16T07:38:36;6.93;;;2.80;;
29688;SDS011;16600;47.444;8.334;2022-10-16T07:41:09;3.78;;;3.08;;
29688;SDS011;16600;47.444;8.334;2022-10-16T07:43:45;12.45;;;3.58;;
29688;SDS011;16600;47.444;8.334;2022-10-16T07:46:11;7.63;;;2.67;;
29688;SDS011;16600;47.444;8.334;2022-10-16T07:48:37;4.72;;;3.13;;
29688;SDS011;16600;47.444;8.334;2022-10-16T07:51:05;3.85;;;2.63;;
29688;SDS011;16600;47.444;8.334;2022-10-16T07:53:31;7.43;;;3.20;;
29688;SDS011;16600;47.444;8.334;2022-10-16T07:56:01;5.22;;;2.72;;
29688;SDS011;16600;47.444;8.334;2022-10-16T07:58:28;9.23;;;3.28;;
29688;SDS011;16600;47.444;8.334;2022-10-16T08:00:55;4.70;;;2.50;;
29688;SDS011;16600;47.444;8.334;2022-10-16T08:03:21;4.47;;;2.30;;
29688;SDS011;16600;47.444;8.334;2022-10-16T08:05:47;2.97;;;2.03;;
29688;SDS011;16600;47.444;8.334;2022-10-16T08:08:14;4.18;;;2.15;;
29688;SDS011;16600;47.444;8.334;2022-10-16T08:10:41;6.82;;;2.60;;
29688;SDS011;16600;47.444;8.334;2022-10-16T08:13:07;3.15;;;2.05;;
29688;SDS011;16600;47.444;8.334;2022-10-16T08:15:34;8.68;;;1.88;;
29688;SDS011;16600;47.444;8.334;2022-10-16T08:18:03;6.82;;;2.40;;
29688;SDS011;16600;47.444;8.334;2022-10-16T08:20:30;4.55;;;2.38;;
29688;SDS011;16600;47.444;8.334;2022-10-16T08:22:56;7.43;;;2.28;;
29688;SDS011;16600;47.444;8.334;2022-10-16T08:25:23;4.22;;;2.33;;
29688;SDS011;16600;47.444;8.334;2022-10-16T08:27:49;5.55;;;2.30;;
29688;SDS011;16600;47.444;8.334;2022-10-16T08:30:15;10.15;;;2.67;;
29688;SDS011;16600;47.444;8.334;2022-10-16T08:32:42;8.73;;;2.60;;
29688;SDS011;16600;47.444;8.334;2022-10-16T08:35:09;3.30;;;2.50;;
29688;SDS011;16600;47.444;8.334;2022-10-16T08:37:35;4.65;;;2.10;;
29688;SDS011;16600;47.444;8.334;2022-10-16T08:40:02;6.38;;;2.42;;
29688;SDS011;16600;47.444;8.334;2022-10-16T08:42:38;2.22;;;2.03;;
29688;SDS011;16600;47.444;8.334;2022-10-16T08:45:15;5.80;;;2.63;;
29688;SDS011;16600;47.444;8.334;2022-10-16T08:47:48;16.35;;;3.13;;
29688;SDS011;16600;47.444;8.334;2022-10-16T08:50:22;3.08;;;2.30;;
29688;SDS011;16600;47.444;8.334;2022-10-16T08:52:49;3.05;;;2.08;;
29688;SDS011;16600;47.444;8.334;2022-10-16T08:55:28;2.75;;;1.90;;
29688;SDS011;16600;47.444;8.334;2022-10-16T08:57:57;8.13;;;1.92;;
29688;SDS011;16600;47.444;8.334;2022-10-16T09:00:23;5.57;;;2.00;;
29688;SDS011;16600;47.444;8.334;2022-10-16T09:12:49;7.55;;;2.55;;
29688;SDS011;16600;47.444;8.334;2022-10-16T09:15:23;5.00;;;2.00;;
29688;SDS011;16600;47.444;8.334;2022-10-16T09:25:31;2.58;;;1.98;;
29688;SDS011;16600;47.444;8.334;2022-10-16T09:27:58;8.02;;;2.08;;
29688;SDS011;16600;47.444;8.334;2022-10-16T09:30:26;14.55;;;1.88;;
29688;SDS011;16600;47.444;8.334;2022-10-16T09:32:52;2.10;;;1.20;;
29688;SDS011;16600;47.444;8.334;2022-10-16T09:35:20;2.47;;;2.10;;
29688;SDS011;16600;47.444;8.334;2022-10-16T09:37:48;3.38;;;1.63;;
29688;SDS011;16600;47.444;8.334;2022-10-16T09:40:26;3.70;;;1.50;;
29688;SDS011;16600;47.444;8.334;2022-10-16T09:43:03;2.88;;;1.60;;
29688;SDS011;16600;47.444;8.334;2022-10-16T09:45:32;1.90;;;1.60;;
29688;SDS011;16600;47.444;8.334;2022-10-16T09:47:58;3.15;;;1.60;;
29688;SDS011;16600;47.444;8.334;2022-10-16T09:50:27;5.18;;;1.70;;
29688;SDS011;16600;47.444;8.334;2022-10-16T09:53:12;2.55;;;1.45;;
29688;SDS011;16600;47.444;8.334;2022-10-16T09:55:49;5.70;;;1.50;;
29688;SDS011;16600;47.444;8.334;2022-10-16T09:58:15;9.95;;;1.70;;
29688;SDS011;16600;47.444;8.334;2022-10-16T10:03:02;4.03;;;1.50;;
29688;SDS011;16600;47.444;8.334;2022-10-16T10:05:36;8.10;;;1.73;;
29688;SDS011;16600;47.444;8.334;2022-10-16T10:08:05;2.42;;;1.45;;
29688;SDS011;16600;47.444;8.334;2022-10-16T10:10:34;3.08;;;1.40;;
29688;SDS011;16600;47.444;8.334;2022-10-16T10:13:02;3.80;;;1.50;;
29688;SDS011;16600;47.444;8.334;2022-10-16T10:15:29;1.70;;;1.52;;
29688;SDS011;16600;47.444;8.334;2022-10-16T10:17:58;5.03;;;1.48;;
29688;SDS011;16600;47.444;8.334;2022-10-16T10:20:34;4.82;;;1.73;;
29688;SDS011;16600;47.444;8.334;2022-10-16T10:23:20;5.40;;;2.25;;
29688;SDS011;16600;47.444;8.334;2022-10-16T10:46:07;7.32;;;1.63;;
29688;SDS011;16600;47.444;8.334;2022-10-16T10:51:21;4.72;;;1.25;;
29688;SDS011;16600;47.444;8.334;2022-10-16T11:01:40;2.90;;;1.35;;
29688;SDS011;16600;47.444;8.334;2022-10-16T11:04:15;2.70;;;1.27;;
29688;SDS011;16600;47.444;8.334;2022-10-16T11:07:02;1.65;;;1.17;;
29688;SDS011;16600;47.444;8.334;2022-10-16T11:09:48;1.75;;;1.25;;
29688;SDS011;16600;47.444;8.334;2022-10-16T11:15:00;2.40;;;1.47;;
29688;SDS011;16600;47.444;8.334;2022-10-16T11:17:28;2.05;;;1.20;;
29688;SDS011;16600;47.444;8.334;2022-10-16T11:22:53;10.90;;;1.40;;
29688;SDS011;16600;47.444;8.334;2022-10-16T11:25:24;2.30;;;1.30;;
29688;SDS011;16600;47.444;8.334;2022-10-16T11:27:54;8.48;;;1.80;;
29688;SDS011;16600;47.444;8.334;2022-10-16T11:30:24;1.67;;;1.15;;
29688;SDS011;16600;47.444;8.334;2022-10-16T11:33:04;2.40;;;0.98;;
29688;SDS011;16600;47.444;8.334;2022-10-16T11:35:54;1.75;;;1.10;;
29688;SDS011;16600;47.444;8.334;2022-10-16T11:38:33;3.40;;;0.90;;
29688;SDS011;16600;47.444;8.334;2022-10-16T11:41:04;3.70;;;1.90;;
29688;SDS011;16600;47.444;8.334;2022-10-16T11:43:37;2.20;;;1.35;;
29688;SDS011;16600;47.444;8.334;2022-10-16T11:46:12;2.90;;;0.95;;
29688;SDS011;16600;47.444;8.334;2022-10-16T11:48:43;1.27;;;0.98;;
29688;SDS011;16600;47.444;8.334;2022-10-16T11:51:15;5.00;;;1.37;;
29688;SDS011;16600;47.444;8.334;2022-10-16T11:53:56;6.88;;;1.25;;
29688;SDS011;16600;47.444;8.334;2022-10-16T11:56:24;2.97;;;1.30;;
29688;SDS011;16600;47.444;8.334;2022-10-16T11:59:00;6.35;;;1.17;;
29688;SDS011;16600;47.444;8.334;2022-10-16T12:01:33;2.05;;;1.10;;
29688;SDS011;16600;47.444;8.334;2022-10-16T12:04:21;5.57;;;1.80;;
29688;SDS011;16600;47.444;8.334;2022-10-16T12:07:02;3.45;;;1.40;;
29688;SDS011;16600;47.444;8.334;2022-10-16T12:09:34;2.40;;;1.40;;
29688;SDS011;16600;47.444;8.334;2022-10-16T12:12:02;1.83;;;1.02;;
29688;SDS011;16600;47.444;8.334;2022-10-16T12:16:58;1.95;;;1.35;;
29688;SDS011;16600;47.444;8.334;2022-10-16T12:19:26;2.03;;;1.10;;
29688;SDS011;16600;47.444;8.334;2022-10-16T12:21:52;3.72;;;1.20;;
29688;SDS011;16600;47.444;8.334;2022-10-16T12:24:38;3.78;;;2.28;;
29688;SDS011;16600;47.444;8.334;2022-10-16T12:27:17;2.97;;;1.20;;
29688;SDS011;16600;47.444;8.334;2022-10-16T12:29:46;3.60;;;1.38;;
29688;SDS011;16600;47.444;8.334;2022-10-16T12:34:57;3.25;;;1.30;;
29688;SDS011;16600;47.444;8.334;2022-10-16T12:37:25;2.78;;;1.40;;
29688;SDS011;16600;47.444;8.334;2022-10-16T12:39:53;3.08;;;1.50;;
29688;SDS011;16600;47.444;8.334;2022-10-16T12:42:30;6.07;;;1.60;;
29688;SDS011;16600;47.444;8.334;2022-10-16T12:44:56;4.40;;;1.27;;
29688;SDS011;16600;47.444;8.334;2022-10-16T12:49:57;4.82;;;1.27;;
29688;SDS011;16600;47.444;8.334;2022-10-16T12:52:26;2.55;;;1.40;;
29688;SDS011;16600;47.444;8.334;2022-10-16T12:54:55;3.42;;;1.60;;
29688;SDS011;16600;47.444;8.334;2022-10-16T12:57:27;8.10;;;1.52;;
29688;SDS011;16600;47.444;8.334;2022-10-16T13:10:06;7.53;;;1.65;;
29688;SDS011;16600;47.444;8.334;2022-10-16T13:23:03;1.45;;;1.10;;
29688;SDS011;16600;47.444;8.334;2022-10-16T13:25:46;4.10;;;1.33;;
29688;SDS011;16600;47.444;8.334;2022-10-16T13:28:12;2.72;;;1.40;;
29688;SDS011;16600;47.444;8.334;2022-10-16T13:30:41;3.22;;;1.80;;
29688;SDS011;16600;47.444;8.334;2022-10-16T13:33:14;2.42;;;1.30;;
29688;SDS011;16600;47.444;8.334;2022-10-16T13:35:48;3.05;;;1.60;;
29688;SDS011;16600;47.444;8.334;2022-10-16T13:38:16;1.50;;;1.02;;
29688;SDS011;16600;47.444;8.334;2022-10-16T13:40:50;1.27;;;0.98;;
29688;SDS011;16600;47.444;8.334;2022-10-16T13:43:17;1.92;;;1.20;;
29688;SDS011;16600;47.444;8.334;2022-10-16T13:48:40;5.35;;;1.50;;
29688;SDS011;16600;47.444;8.334;2022-10-16T13:51:17;1.92;;;1.13;;
29688;SDS011;16600;47.444;8.334;2022-10-16T13:53:44;13.02;;;1.63;;
29688;SDS011;16600;47.444;8.334;2022-10-16T13:56:13;2.00;;;1.00;;
29688;SDS011;16600;47.444;8.334;2022-10-16T13:58:40;3.45;;;1.38;;
29688;SDS011;16600;47.444;8.334;2022-10-16T14:01:16;9.82;;;1.38;;
29688;SDS011;16600;47.444;8.334;2022-10-16T14:03:46;2.85;;;1.40;;
29688;SDS011;16600;47.444;8.334;2022-10-16T14:06:16;10.40;;;1.52;;
29688;SDS011;16600;47.444;8.334;2022-10-16T14:08:48;7.10;;;1.27;;
29688;SDS011;16600;47.444;8.334;2022-10-16T14:11:20;4.45;;;1.58;;
29688;SDS011;16600;47.444;8.334;2022-10-16T14:13:46;5.00;;;1.20;;
29688;SDS011;16600;47.444;8.334;2022-10-16T14:16:18;5.97;;;1.25;;
29688;SDS011;16600;47.444;8.334;2022-10-16T14:18:58;20.60;;;1.58;;
29688;SDS011;16600;47.444;8.334;2022-10-16T14:21:25;7.97;;;1.40;;
29688;SDS011;16600;47.444;8.334;2022-10-16T14:23:52;6.43;;;1.65;;
29688;SDS011;16600;47.444;8.334;2022-10-16T14:26:27;2.92;;;1.05;;
29688;SDS011;16600;47.444;8.334;2022-10-16T14:29:17;9.73;;;2.58;;
29688;SDS011;16600;47.444;8.334;2022-10-16T14:31:53;6.18;;;1.35;;
29688;SDS011;16600;47.444;8.334;2022-10-16T14:34:24;10.15;;;2.05;;
29688;SDS011;16600;47.444;8.334;2022-10-16T14:36:50;4.28;;;1.27;;
29688;SDS011;16600;47.444;8.334;2022-10-16T14:39:19;17.85;;;2.20;;
29688;SDS011;16600;47.444;8.334;2022-10-16T14:41:49;4.53;;;1.35;;
29688;SDS011;16600;47.444;8.334;2022-10-16T14:44:16;7.10;;;1.58;;
29688;SDS011;16600;47.444;8.334;2022-10-16T14:46:42;9.82;;;1.38;;
29688;SDS011;16600;47.444;8.334;2022-10-16T14:51:38;12.73;;;2.13;;
29688;SDS011;16600;47.444;8.334;2022-10-16T14:54:13;2.85;;;1.17;;
29688;SDS011;16600;47.444;8.334;2022-10-16T14:59:09;8.85;;;1.92;;
29688;SDS011;16600;47.444;8.334;2022-10-16T15:01:39;12.45;;;2.42;;
29688;SDS011;16600;47.444;8.334;2022-10-16T15:04:07;8.60;;;1.63;;
29688;SDS011;16600;47.444;8.334;2022-10-16T15:06:33;8.45;;;1.88;;
29688;SDS011;16600;47.444;8.334;2022-10-16T15:08:59;6.22;;;1.58;;
29688;SDS011;16600;47.444;8.334;2022-10-16T15:11:25;8.10;;;1.70;;
29688;SDS011;16600;47.444;8.334;2022-10-16T15:13:52;5.80;;;1.52;;
29688;SDS011;16600;47.444;8.334;2022-10-16T15:16:20;11.10;;;2.10;;
29688;SDS011;16600;47.444;8.334;2022-10-16T15:18:46;21.70;;;1.98;;
29688;SDS011;16600;47.444;8.334;2022-10-16T15:21:28;5.18;;;1.50;;
29688;SDS011;16600;47.444;8.334;2022-10-16T15:23:55;10.35;;;1.85;;
29688;SDS011;16600;47.444;8.334;2022-10-16T15:26:24;5.35;;;1.30;;
29688;SDS011;16600;47.444;8.334;2022-10-16T15:28:50;5.43;;;1.20;;
29688;SDS011;16600;47.444;8.334;2022-10-16T15:31:16;6.22;;;2.13;;
29688;SDS011;16600;47.444;8.334;2022-10-16T15:33:42;3.47;;;1.75;;
29688;SDS011;16600;47.444;8.334;2022-10-16T15:36:08;13.63;;;2.00;;
29688;SDS011;16600;47.444;8.334;2022-10-16T15:38:34;11.45;;;2.08;;
29688;SDS011;16600;47.444;8.334;2022-10-16T15:41:01;11.68;;;2.35;;
29688;SDS011;16600;47.444;8.334;2022-10-16T15:43:27;12.57;;;1.40;;
29688;SDS011;16600;47.444;8.334;2022-10-16T15:45:58;11.70;;;2.25;;
29688;SDS011;16600;47.444;8.334;2022-10-16T15:48:25;9.50;;;1.92;;
29688;SDS011;16600;47.444;8.334;2022-10-16T15:50:51;7.82;;;2.15;;
29688;SDS011;16600;47.444;8.334;2022-10-16T15:53:17;10.90;;;2.20;;
29688;SDS011;16600;47.444;8.334;2022-10-16T15:55:43;8.60;;;1.92;;
29688;SDS011;16600;47.444;8.334;2022-10-16T15:58:09;8.77;;;2.05;;
29688;SDS011;16600;47.444;8.334;2022-10-16T16:03:01;6.87;;;1.80;;
29688;SDS011;16600;47.444;8.334;2022-10-16T16:05:27;8.27;;;2.03;;
29688;SDS011;16600;47.444;8.334;2022-10-16T16:07:53;9.20;;;2.60;;
29688;SDS011;16600;47.444;8.334;2022-10-16T16:10:19;16.73;;;3.25;;
29688;SDS011;16600;47.444;8.334;2022-10-16T16:12:46;8.38;;;2.50;;
29688;SDS011;16600;47.444;8.334;2022-10-16T16:15:17;10.30;;;2.65;;
29688;SDS011;16600;47.444;8.334;2022-10-16T16:17:43;14.18;;;2.95;;
29688;SDS011;16600;47.444;8.334;2022-10-16T16:20:10;15.88;;;2.60;;
29688;SDS011;16600;47.444;8.334;2022-10-16T16:22:39;8.25;;;2.40;;
29688;SDS011;16600;47.444;8.334;2022-10-16T16:25:05;7.63;;;2.40;;
29688;SDS011;16600;47.444;8.334;2022-10-16T16:27:35;16.95;;;2.63;;
29688;SDS011;16600;47.444;8.334;2022-10-16T16:30:04;13.57;;;2.83;;
29688;SDS011;16600;47.444;8.334;2022-10-16T16:32:30;12.55;;;2.55;;
29688;SDS011;16600;47.444;8.334;2022-10-16T16:34:57;14.95;;;2.55;;
29688;SDS011;16600;47.444;8.334;2022-10-16T16:37:23;7.93;;;3.72;;
29688;SDS011;16600;47.444;8.334;2022-10-16T16:39:49;8.63;;;2.70;;
29688;SDS011;16600;47.444;8.334;2022-10-16T16:42:15;12.00;;;3.10;;
29688;SDS011;16600;47.444;8.334;2022-10-16T16:44:41;9.32;;;3.47;;
29688;SDS011;16600;47.444;8.334;2022-10-16T16:47:09;11.48;;;3.35;;
29688;SDS011;16600;47.444;8.334;2022-10-16T16:49:35;18.65;;;3.63;;
29688;SDS011;16600;47.444;8.334;2022-10-16T16:52:01;15.93;;;3.67;;
29688;SDS011;16600;47.444;8.334;2022-10-16T16:54:27;13.52;;;3.97;;
29688;SDS011;16600;47.444;8.334;2022-10-16T16:56:54;15.85;;;3.63;;
29688;SDS011;16600;47.444;8.334;2022-10-16T16:59:20;14.02;;;2.95;;
29688;SDS011;16600;47.444;8.334;2022-10-16T17:01:47;8.32;;;3.00;;
29688;SDS011;16600;47.444;8.334;2022-10-16T17:04:14;12.20;;;2.97;;
29688;SDS011;16600;47.444;8.334;2022-10-16T17:06:44;7.07;;;2.35;;
29688;SDS011;16600;47.444;8.334;2022-10-16T17:09:10;11.57;;;3.15;;
29688;SDS011;16600;47.444;8.334;2022-10-16T17:11:38;11.13;;;3.17;;
29688;SDS011;16600;47.444;8.334;2022-10-16T17:14:06;12.13;;;3.53;;
29688;SDS011;16600;47.444;8.334;2022-10-16T17:16:34;8.85;;;2.60;;
29688;SDS011;16600;47.444;8.334;2022-10-16T17:19:07;28.95;;;2.97;;
29688;SDS011;16600;47.444;8.334;2022-10-16T17:21:34;10.35;;;4.10;;
29688;SDS011;16600;47.444;8.334;2022-10-16T17:24:03;8.75;;;3.28;;
29688;SDS011;16600;47.444;8.334;2022-10-16T17:26:30;10.80;;;2.67;;
29688;SDS011;16600;47.444;8.334;2022-10-16T17:28:57;13.70;;;2.15;;